sensor_id;sensor_type;location;lat;lon;timestamp;P1;durP1;ratioP1;P2;durP2;ratioP2
66212;SDS011;53015;50.046;8.238;2022-09-17T00:00:31;4.43;;;0.60;;
66212;SDS011;53015;50.046;8.238;2022-09-17T00:02:57;6.70;;;0.90;;
66212;SDS011;53015;50.046;8.238;2022-09-17T00:05:22;2.10;;;0.73;;
66212;SDS011;53015;50.046;8.238;2022-09-17T00:07:51;4.32;;;0.77;;
66212;SDS011;53015;50.046;8.238;2022-09-17T00:10:17;5.68;;;1.33;;
66212;SDS011;53015;50.046;8.238;2022-09-17T00:12:44;3.15;;;0.70;;
66212;SDS011;53015;50.046;8.238;2022-09-17T00:15:12;5.13;;;1.23;;
66212;SDS011;53015;50.046;8.238;2022-09-17T00:17:37;3.72;;;0.50;;
66212;SDS011;53015;50.046;8.238;2022-09-17T00:20:04;3.42;;;0.73;;
66212;SDS011;53015;50.046;8.238;2022-09-17T00:22:34;4.35;;;0.75;;
66212;SDS011;53015;50.046;8.238;2022-09-17T00:25:00;5.22;;;0.80;;
66212;SDS011;53015;50.046;8.238;2022-09-17T00:27:26;4.15;;;0.80;;
66212;SDS011;53015;50.046;8.238;2022-09-17T00:29:51;4.03;;;0.60;;
66212;SDS011;53015;50.046;8.238;2022-09-17T00:32:16;8.32;;;0.90;;
66212;SDS011;53015;50.046;8.238;2022-09-17T00:34:42;5.25;;;0.95;;
66212;SDS011;53015;50.046;8.238;2022-09-17T00:37:08;3.75;;;0.80;;
66212;SDS011;53015;50.046;8.238;2022-09-17T00:39:33;5.75;;;0.73;;
66212;SDS011;53015;50.046;8.238;2022-09-17T00:41:58;3.35;;;0.80;;
66212;SDS011;53015;50.046;8.238;2022-09-17T00:47:01;5.25;;;0.88;;
66212;SDS011;53015;50.046;8.238;2022-09-17T00:49:28;2.75;;;0.80;;
66212;SDS011;53015;50.046;8.238;2022-09-17T00:52:05;4.70;;;0.80;;
66212;SDS011;53015;50.046;8.238;2022-09-17T00:54:35;3.00;;;0.60;;
66212;SDS011;53015;50.046;8.238;2022-09-17T00:57:02;2.03;;;0.60;;
66212;SDS011;53015;50.046;8.238;2022-09-17T00:59:28;3.80;;;0.60;;
66212;SDS011;53015;50.046;8.238;2022-09-17T01:01:53;3.53;;;0.90;;
66212;SDS011;53015;50.046;8.238;2022-09-17T01:04:22;2.97;;;0.60;;
66212;SDS011;53015;50.046;8.238;2022-09-17T01:10:10;4.00;;;0.70;;
66212;SDS011;53015;50.046;8.238;2022-09-17T01:13:01;3.15;;;0.90;;
66212;SDS011;53015;50.046;8.238;2022-09-17T01:18:40;2.00;;;0.90;;
66212;SDS011;53015;50.046;8.238;2022-09-17T01:27:13;1.73;;;0.85;;
66212;SDS011;53015;50.046;8.238;2022-09-17T01:38:19;3.72;;;0.60;;
66212;SDS011;53015;50.046;8.238;2022-09-17T01:41:06;2.83;;;1.00;;
66212;SDS011;53015;50.046;8.238;2022-09-17T01:43:47;6.75;;;0.75;;
66212;SDS011;53015;50.046;8.238;2022-09-17T01:46:20;3.00;;;0.80;;
66212;SDS011;53015;50.046;8.238;2022-09-17T01:48:52;6.00;;;1.10;;
66212;SDS011;53015;50.046;8.238;2022-09-17T01:51:26;2.92;;;0.85;;
66212;SDS011;53015;50.046;8.238;2022-09-17T01:54:06;5.57;;;1.73;;
66212;SDS011;53015;50.046;8.238;2022-09-17T01:56:40;3.83;;;0.90;;
66212;SDS011;53015;50.046;8.238;2022-09-17T01:59:14;2.75;;;0.70;;
66212;SDS011;53015;50.046;8.238;2022-09-17T02:01:44;4.38;;;1.35;;
66212;SDS011;53015;50.046;8.238;2022-09-17T02:04:28;1.90;;;0.65;;
66212;SDS011;53015;50.046;8.238;2022-09-17T02:06:59;4.18;;;1.38;;
66212;SDS011;53015;50.046;8.238;2022-09-17T02:09:30;2.83;;;0.85;;
66212;SDS011;53015;50.046;8.238;2022-09-17T02:12:01;2.67;;;1.00;;
66212;SDS011;53015;50.046;8.238;2022-09-17T02:14:32;4.35;;;1.00;;
66212;SDS011;53015;50.046;8.238;2022-09-17T02:17:11;4.75;;;1.05;;
66212;SDS011;53015;50.046;8.238;2022-09-17T02:19:44;3.67;;;1.00;;
66212;SDS011;53015;50.046;8.238;2022-09-17T02:25:14;3.65;;;0.90;;
66212;SDS011;53015;50.046;8.238;2022-09-17T02:30:32;4.47;;;0.95;;
66212;SDS011;53015;50.046;8.238;2022-09-17T02:32:59;2.60;;;0.90;;
66212;SDS011;53015;50.046;8.238;2022-09-17T02:35:29;5.63;;;0.95;;
66212;SDS011;53015;50.046;8.238;2022-09-17T02:37:55;4.63;;;1.15;;
66212;SDS011;53015;50.046;8.238;2022-09-17T02:40:21;4.82;;;0.85;;
66212;SDS011;53015;50.046;8.238;2022-09-17T02:48:29;2.72;;;0.80;;
66212;SDS011;53015;50.046;8.238;2022-09-17T02:51:54;2.30;;;0.88;;
66212;SDS011;53015;50.046;8.238;2022-09-17T02:54:23;4.72;;;0.85;;
66212;SDS011;53015;50.046;8.238;2022-09-17T02:56:56;8.40;;;1.10;;
66212;SDS011;53015;50.046;8.238;2022-09-17T02:59:39;6.50;;;1.42;;
66212;SDS011;53015;50.046;8.238;2022-09-17T03:02:29;3.33;;;0.75;;
66212;SDS011;53015;50.046;8.238;2022-09-17T03:05:00;4.97;;;0.80;;
66212;SDS011;53015;50.046;8.238;2022-09-17T03:07:27;4.10;;;1.30;;
66212;SDS011;53015;50.046;8.238;2022-09-17T03:09:53;8.88;;;0.93;;
66212;SDS011;53015;50.046;8.238;2022-09-17T03:12:18;4.07;;;1.05;;
66212;SDS011;53015;50.046;8.238;2022-09-17T03:14:44;3.33;;;1.10;;
66212;SDS011;53015;50.046;8.238;2022-09-17T03:17:10;4.10;;;0.80;;
66212;SDS011;53015;50.046;8.238;2022-09-17T03:19:36;4.60;;;1.30;;
66212;SDS011;53015;50.046;8.238;2022-09-17T03:22:01;5.10;;;0.88;;
66212;SDS011;53015;50.046;8.238;2022-09-17T03:24:27;3.92;;;0.80;;
66212;SDS011;53015;50.046;8.238;2022-09-17T03:26:52;7.15;;;0.80;;
66212;SDS011;53015;50.046;8.238;2022-09-17T03:29:21;2.35;;;0.80;;
66212;SDS011;53015;50.046;8.238;2022-09-17T03:31:46;6.72;;;1.08;;
66212;SDS011;53015;50.046;8.238;2022-09-17T03:34:11;4.18;;;1.08;;
66212;SDS011;53015;50.046;8.238;2022-09-17T03:36:37;7.05;;;0.88;;
66212;SDS011;53015;50.046;8.238;2022-09-17T03:39:03;3.90;;;0.80;;
66212;SDS011;53015;50.046;8.238;2022-09-17T03:41:28;6.80;;;1.08;;
66212;SDS011;53015;50.046;8.238;2022-09-17T03:43:54;5.75;;;1.00;;
66212;SDS011;53015;50.046;8.238;2022-09-17T03:46:19;5.13;;;0.90;;
66212;SDS011;53015;50.046;8.238;2022-09-17T03:48:45;4.78;;;1.20;;
66212;SDS011;53015;50.046;8.238;2022-09-17T03:51:10;5.07;;;1.00;;
66212;SDS011;53015;50.046;8.238;2022-09-17T03:53:36;4.50;;;1.00;;
66212;SDS011;53015;50.046;8.238;2022-09-17T03:56:02;4.03;;;1.63;;
66212;SDS011;53015;50.046;8.238;2022-09-17T03:58:29;3.90;;;0.85;;
66212;SDS011;53015;50.046;8.238;2022-09-17T04:00:56;4.75;;;0.88;;
66212;SDS011;53015;50.046;8.238;2022-09-17T04:03:26;2.72;;;0.80;;
66212;SDS011;53015;50.046;8.238;2022-09-17T04:05:52;3.40;;;1.00;;
66212;SDS011;53015;50.046;8.238;2022-09-17T04:08:18;4.75;;;0.93;;
66212;SDS011;53015;50.046;8.238;2022-09-17T04:10:44;2.92;;;0.77;;
66212;SDS011;53015;50.046;8.238;2022-09-17T04:13:10;4.93;;;1.05;;
66212;SDS011;53015;50.046;8.238;2022-09-17T04:15:38;2.78;;;0.90;;
66212;SDS011;53015;50.046;8.238;2022-09-17T04:18:04;6.30;;;1.00;;
66212;SDS011;53015;50.046;8.238;2022-09-17T04:20:29;3.20;;;0.75;;
66212;SDS011;53015;50.046;8.238;2022-09-17T04:22:55;5.68;;;1.00;;
66212;SDS011;53015;50.046;8.238;2022-09-17T04:25:21;5.40;;;1.10;;
66212;SDS011;53015;50.046;8.238;2022-09-17T04:27:47;7.45;;;0.90;;
66212;SDS011;53015;50.046;8.238;2022-09-17T04:30:12;4.63;;;0.88;;
66212;SDS011;53015;50.046;8.238;2022-09-17T04:32:39;2.55;;;0.75;;
66212;SDS011;53015;50.046;8.238;2022-09-17T04:35:07;4.30;;;1.08;;
66212;SDS011;53015;50.046;8.238;2022-09-17T04:37:33;5.25;;;1.17;;
66212;SDS011;53015;50.046;8.238;2022-09-17T04:39:58;10.18;;;1.00;;
66212;SDS011;53015;50.046;8.238;2022-09-17T04:42:23;4.53;;;0.77;;
66212;SDS011;53015;50.046;8.238;2022-09-17T04:44:49;7.30;;;1.25;;
66212;SDS011;53015;50.046;8.238;2022-09-17T04:47:14;3.13;;;1.40;;
66212;SDS011;53015;50.046;8.238;2022-09-17T04:49:40;3.35;;;1.17;;
66212;SDS011;53015;50.046;8.238;2022-09-17T04:52:05;3.95;;;0.93;;
66212;SDS011;53015;50.046;8.238;2022-09-17T04:54:31;2.05;;;0.90;;
66212;SDS011;53015;50.046;8.238;2022-09-17T04:56:56;3.17;;;0.80;;
66212;SDS011;53015;50.046;8.238;2022-09-17T04:59:22;3.50;;;0.90;;
66212;SDS011;53015;50.046;8.238;2022-09-17T05:01:47;2.13;;;0.82;;
66212;SDS011;53015;50.046;8.238;2022-09-17T05:04:13;4.13;;;1.10;;
66212;SDS011;53015;50.046;8.238;2022-09-17T05:06:40;4.38;;;1.08;;
66212;SDS011;53015;50.046;8.238;2022-09-17T05:09:06;6.82;;;1.00;;
66212;SDS011;53015;50.046;8.238;2022-09-17T05:11:32;5.00;;;0.88;;
66212;SDS011;53015;50.046;8.238;2022-09-17T05:13:57;3.55;;;0.70;;
66212;SDS011;53015;50.046;8.238;2022-09-17T05:16:23;5.55;;;0.98;;
66212;SDS011;53015;50.046;8.238;2022-09-17T05:18:49;3.40;;;0.80;;
66212;SDS011;53015;50.046;8.238;2022-09-17T05:21:16;5.00;;;1.77;;
66212;SDS011;53015;50.046;8.238;2022-09-17T05:23:42;3.40;;;1.10;;
66212;SDS011;53015;50.046;8.238;2022-09-17T05:26:07;5.40;;;1.00;;
66212;SDS011;53015;50.046;8.238;2022-09-17T05:28:33;3.42;;;1.02;;
66212;SDS011;53015;50.046;8.238;2022-09-17T05:30:59;6.57;;;1.15;;
66212;SDS011;53015;50.046;8.238;2022-09-17T05:33:25;4.35;;;1.33;;
66212;SDS011;53015;50.046;8.238;2022-09-17T05:35:51;8.15;;;1.48;;
66212;SDS011;53015;50.046;8.238;2022-09-17T05:38:16;2.72;;;1.10;;
66212;SDS011;53015;50.046;8.238;2022-09-17T05:40:43;5.50;;;1.20;;
66212;SDS011;53015;50.046;8.238;2022-09-17T05:43:09;4.40;;;1.20;;
66212;SDS011;53015;50.046;8.238;2022-09-17T05:45:35;4.38;;;1.40;;
66212;SDS011;53015;50.046;8.238;2022-09-17T05:48:02;6.00;;;1.67;;
66212;SDS011;53015;50.046;8.238;2022-09-17T05:50:29;4.47;;;1.10;;
66212;SDS011;53015;50.046;8.238;2022-09-17T05:52:55;4.75;;;1.17;;
66212;SDS011;53015;50.046;8.238;2022-09-17T05:55:21;7.75;;;1.20;;
66212;SDS011;53015;50.046;8.238;2022-09-17T05:57:48;6.53;;;1.13;;
66212;SDS011;53015;50.046;8.238;2022-09-17T06:00:14;5.30;;;1.10;;
66212;SDS011;53015;50.046;8.238;2022-09-17T06:02:40;8.38;;;1.35;;
66212;SDS011;53015;50.046;8.238;2022-09-17T06:05:06;4.72;;;1.25;;
66212;SDS011;53015;50.046;8.238;2022-09-17T06:07:35;4.57;;;1.38;;
66212;SDS011;53015;50.046;8.238;2022-09-17T06:10:02;5.00;;;1.33;;
66212;SDS011;53015;50.046;8.238;2022-09-17T06:12:28;7.50;;;1.50;;
66212;SDS011;53015;50.046;8.238;2022-09-17T06:14:54;4.55;;;1.23;;
66212;SDS011;53015;50.046;8.238;2022-09-17T06:17:19;4.90;;;1.08;;
66212;SDS011;53015;50.046;8.238;2022-09-17T06:19:45;5.07;;;1.45;;
66212;SDS011;53015;50.046;8.238;2022-09-17T06:22:10;5.75;;;1.33;;
66212;SDS011;53015;50.046;8.238;2022-09-17T06:24:35;4.90;;;1.00;;
66212;SDS011;53015;50.046;8.238;2022-09-17T06:27:01;4.47;;;1.10;;
66212;SDS011;53015;50.046;8.238;2022-09-17T06:29:26;4.53;;;1.40;;
66212;SDS011;53015;50.046;8.238;2022-09-17T06:31:51;7.43;;;1.20;;
66212;SDS011;53015;50.046;8.238;2022-09-17T06:34:18;6.35;;;1.67;;
66212;SDS011;53015;50.046;8.238;2022-09-17T06:36:43;6.03;;;1.40;;
66212;SDS011;53015;50.046;8.238;2022-09-17T06:39:09;1.90;;;0.82;;
66212;SDS011;53015;50.046;8.238;2022-09-17T06:41:36;3.08;;;0.90;;
66212;SDS011;53015;50.046;8.238;2022-09-17T06:44:06;8.82;;;1.60;;
66212;SDS011;53015;50.046;8.238;2022-09-17T06:46:32;7.03;;;1.50;;
66212;SDS011;53015;50.046;8.238;2022-09-17T06:48:57;7.47;;;1.10;;
66212;SDS011;53015;50.046;8.238;2022-09-17T06:51:23;4.80;;;1.20;;
66212;SDS011;53015;50.046;8.238;2022-09-17T06:53:48;6.97;;;1.30;;
66212;SDS011;53015;50.046;8.238;2022-09-17T06:56:14;7.93;;;1.50;;
66212;SDS011;53015;50.046;8.238;2022-09-17T06:58:39;5.70;;;1.25;;
66212;SDS011;53015;50.046;8.238;2022-09-17T07:01:09;9.02;;;1.48;;
66212;SDS011;53015;50.046;8.238;2022-09-17T07:03:36;14.10;;;1.92;;
66212;SDS011;53015;50.046;8.238;2022-09-17T07:06:02;6.20;;;1.10;;
66212;SDS011;53015;50.046;8.238;2022-09-17T07:08:28;7.38;;;1.42;;
66212;SDS011;53015;50.046;8.238;2022-09-17T07:10:56;9.02;;;1.42;;
66212;SDS011;53015;50.046;8.238;2022-09-17T07:13:22;6.43;;;1.33;;
66212;SDS011;53015;50.046;8.238;2022-09-17T07:15:57;7.68;;;1.60;;
66212;SDS011;53015;50.046;8.238;2022-09-17T07:18:24;8.13;;;1.15;;
66212;SDS011;53015;50.046;8.238;2022-09-17T07:20:54;7.90;;;1.80;;
66212;SDS011;53015;50.046;8.238;2022-09-17T07:23:24;5.60;;;1.20;;
66212;SDS011;53015;50.046;8.238;2022-09-17T07:25:51;5.85;;;1.48;;
66212;SDS011;53015;50.046;8.238;2022-09-17T07:28:17;6.55;;;1.50;;
66212;SDS011;53015;50.046;8.238;2022-09-17T07:30:43;9.32;;;1.40;;
66212;SDS011;53015;50.046;8.238;2022-09-17T07:33:08;7.05;;;1.35;;
66212;SDS011;53015;50.046;8.238;2022-09-17T07:35:33;5.95;;;1.52;;
66212;SDS011;53015;50.046;8.238;2022-09-17T07:37:59;7.35;;;1.50;;
66212;SDS011;53015;50.046;8.238;2022-09-17T07:40:24;6.63;;;1.35;;
66212;SDS011;53015;50.046;8.238;2022-09-17T07:42:50;6.57;;;1.30;;
66212;SDS011;53015;50.046;8.238;2022-09-17T07:45:15;8.70;;;1.27;;
66212;SDS011;53015;50.046;8.238;2022-09-17T07:47:41;7.38;;;1.42;;
66212;SDS011;53015;50.046;8.238;2022-09-17T07:50:08;4.57;;;1.00;;
66212;SDS011;53015;50.046;8.238;2022-09-17T07:52:34;8.23;;;1.63;;
66212;SDS011;53015;50.046;8.238;2022-09-17T07:55:00;7.75;;;1.33;;
66212;SDS011;53015;50.046;8.238;2022-09-17T07:57:26;7.10;;;1.10;;
66212;SDS011;53015;50.046;8.238;2022-09-17T07:59:51;5.13;;;1.05;;
66212;SDS011;53015;50.046;8.238;2022-09-17T08:02:17;4.40;;;1.50;;
66212;SDS011;53015;50.046;8.238;2022-09-17T08:04:42;8.27;;;1.52;;
66212;SDS011;53015;50.046;8.238;2022-09-17T08:07:09;5.75;;;1.35;;
66212;SDS011;53015;50.046;8.238;2022-09-17T08:09:36;5.28;;;1.20;;
66212;SDS011;53015;50.046;8.238;2022-09-17T08:12:02;9.27;;;1.95;;
66212;SDS011;53015;50.046;8.238;2022-09-17T08:14:28;4.72;;;1.48;;
66212;SDS011;53015;50.046;8.238;2022-09-17T08:16:53;8.30;;;1.60;;
66212;SDS011;53015;50.046;8.238;2022-09-17T08:19:18;8.32;;;1.52;;
66212;SDS011;53015;50.046;8.238;2022-09-17T08:21:44;3.75;;;1.00;;
66212;SDS011;53015;50.046;8.238;2022-09-17T08:24:09;7.10;;;1.40;;
66212;SDS011;53015;50.046;8.238;2022-09-17T08:26:34;6.97;;;1.17;;
66212;SDS011;53015;50.046;8.238;2022-09-17T08:29:00;8.18;;;1.33;;
66212;SDS011;53015;50.046;8.238;2022-09-17T08:31:26;4.50;;;1.20;;
66212;SDS011;53015;50.046;8.238;2022-09-17T08:33:54;8.25;;;1.40;;
66212;SDS011;53015;50.046;8.238;2022-09-17T08:36:19;5.13;;;1.15;;
66212;SDS011;53015;50.046;8.238;2022-09-17T08:38:47;4.97;;;1.10;;
66212;SDS011;53015;50.046;8.238;2022-09-17T08:41:23;3.42;;;1.10;;
66212;SDS011;53015;50.046;8.238;2022-09-17T08:46:31;6.45;;;1.58;;
66212;SDS011;53015;50.046;8.238;2022-09-17T08:49:10;6.50;;;1.55;;
66212;SDS011;53015;50.046;8.238;2022-09-17T08:54:19;5.55;;;1.10;;
66212;SDS011;53015;50.046;8.238;2022-09-17T08:57:08;6.00;;;0.90;;
66212;SDS011;53015;50.046;8.238;2022-09-17T08:59:49;5.50;;;1.00;;
66212;SDS011;53015;50.046;8.238;2022-09-17T09:05:07;5.15;;;1.00;;
66212;SDS011;53015;50.046;8.238;2022-09-17T09:07:41;4.05;;;0.88;;
66212;SDS011;53015;50.046;8.238;2022-09-17T09:10:13;6.50;;;0.98;;
66212;SDS011;53015;50.046;8.238;2022-09-17T09:15:16;4.65;;;0.90;;
66212;SDS011;53015;50.046;8.238;2022-09-17T09:17:52;5.43;;;0.82;;
66212;SDS011;53015;50.046;8.238;2022-09-17T09:20:20;5.78;;;1.13;;
66212;SDS011;53015;50.046;8.238;2022-09-17T09:22:56;5.50;;;0.90;;
66212;SDS011;53015;50.046;8.238;2022-09-17T09:25:26;8.35;;;1.10;;
66212;SDS011;53015;50.046;8.238;2022-09-17T09:28:06;4.60;;;1.00;;
66212;SDS011;53015;50.046;8.238;2022-09-17T09:33:22;6.68;;;0.90;;
66212;SDS011;53015;50.046;8.238;2022-09-17T09:35:59;2.00;;;0.50;;
66212;SDS011;53015;50.046;8.238;2022-09-17T09:38:32;4.20;;;0.60;;
66212;SDS011;53015;50.046;8.238;2022-09-17T09:41:12;1.63;;;0.60;;
66212;SDS011;53015;50.046;8.238;2022-09-17T09:43:44;1.58;;;0.43;;
66212;SDS011;53015;50.046;8.238;2022-09-17T09:59:49;2.35;;;0.65;;
66212;SDS011;53015;50.046;8.238;2022-09-17T10:02:14;1.98;;;0.70;;
66212;SDS011;53015;50.046;8.238;2022-09-17T10:04:40;2.13;;;0.60;;
66212;SDS011;53015;50.046;8.238;2022-09-17T10:07:07;3.53;;;1.00;;
66212;SDS011;53015;50.046;8.238;2022-09-17T10:09:34;2.67;;;0.80;;
66212;SDS011;53015;50.046;8.238;2022-09-17T10:12:12;3.20;;;0.80;;
66212;SDS011;53015;50.046;8.238;2022-09-17T10:14:40;5.63;;;1.05;;
66212;SDS011;53015;50.046;8.238;2022-09-17T10:22:25;4.45;;;1.83;;
66212;SDS011;53015;50.046;8.238;2022-09-17T10:25:04;4.80;;;0.90;;
66212;SDS011;53015;50.046;8.238;2022-09-17T10:27:42;2.17;;;0.82;;
66212;SDS011;53015;50.046;8.238;2022-09-17T10:32:35;8.93;;;1.30;;
66212;SDS011;53015;50.046;8.238;2022-09-17T10:35:02;3.55;;;1.08;;
66212;SDS011;53015;50.046;8.238;2022-09-17T10:37:32;4.20;;;0.82;;
66212;SDS011;53015;50.046;8.238;2022-09-17T10:39:59;7.20;;;0.90;;
66212;SDS011;53015;50.046;8.238;2022-09-17T10:42:25;4.25;;;1.02;;
66212;SDS011;53015;50.046;8.238;2022-09-17T10:44:54;7.72;;;1.50;;
66212;SDS011;53015;50.046;8.238;2022-09-17T10:47:25;3.63;;;0.77;;
66212;SDS011;53015;50.046;8.238;2022-09-17T10:50:03;5.40;;;1.10;;
66212;SDS011;53015;50.046;8.238;2022-09-17T10:52:33;4.53;;;0.93;;
66212;SDS011;53015;50.046;8.238;2022-09-17T11:36:22;4.07;;;0.98;;
66212;SDS011;53015;50.046;8.238;2022-09-17T11:38:53;7.13;;;0.85;;
66212;SDS011;53015;50.046;8.238;2022-09-17T11:41:22;5.25;;;1.00;;
66212;SDS011;53015;50.046;8.238;2022-09-17T11:44:07;3.53;;;0.90;;
66212;SDS011;53015;50.046;8.238;2022-09-17T11:46:45;3.28;;;0.80;;
66212;SDS011;53015;50.046;8.238;2022-09-17T11:49:26;7.45;;;1.00;;
66212;SDS011;53015;50.046;8.238;2022-09-17T11:55:17;5.28;;;0.98;;
66212;SDS011;53015;50.046;8.238;2022-09-17T11:57:46;2.80;;;0.73;;
66212;SDS011;53015;50.046;8.238;2022-09-17T12:00:16;5.22;;;0.50;;
66212;SDS011;53015;50.046;8.238;2022-09-17T12:05:27;4.38;;;0.63;;
66212;SDS011;53015;50.046;8.238;2022-09-17T12:08:03;3.05;;;0.60;;
66212;SDS011;53015;50.046;8.238;2022-09-17T12:16:15;3.50;;;0.68;;
66212;SDS011;53015;50.046;8.238;2022-09-17T12:21:29;3.03;;;0.65;;
66212;SDS011;53015;50.046;8.238;2022-09-17T12:24:13;4.20;;;0.60;;
66212;SDS011;53015;50.046;8.238;2022-09-17T12:29:35;6.97;;;1.23;;
66212;SDS011;53015;50.046;8.238;2022-09-17T12:40:38;2.50;;;0.60;;
66212;SDS011;53015;50.046;8.238;2022-09-17T12:59:15;4.32;;;0.88;;
66212;SDS011;53015;50.046;8.238;2022-09-17T13:12:45;4.18;;;0.90;;
66212;SDS011;53015;50.046;8.238;2022-09-17T13:18:44;2.83;;;0.60;;
66212;SDS011;53015;50.046;8.238;2022-09-17T13:23:45;3.50;;;0.45;;
66212;SDS011;53015;50.046;8.238;2022-09-17T13:26:14;3.78;;;1.00;;
66212;SDS011;53015;50.046;8.238;2022-09-17T13:28:44;3.13;;;0.80;;
66212;SDS011;53015;50.046;8.238;2022-09-17T13:31:12;2.75;;;0.57;;
66212;SDS011;53015;50.046;8.238;2022-09-17T13:33:54;2.17;;;0.55;;
66212;SDS011;53015;50.046;8.238;2022-09-17T13:36:37;1.63;;;0.50;;
66212;SDS011;53015;50.046;8.238;2022-09-17T13:39:10;2.38;;;0.50;;
66212;SDS011;53015;50.046;8.238;2022-09-17T13:42:00;1.55;;;0.60;;
66212;SDS011;53015;50.046;8.238;2022-09-17T13:44:33;0.95;;;0.40;;
66212;SDS011;53015;50.046;8.238;2022-09-17T13:47:10;3.08;;;0.80;;
66212;SDS011;53015;50.046;8.238;2022-09-17T13:49:44;1.00;;;0.55;;
66212;SDS011;53015;50.046;8.238;2022-09-17T13:52:31;0.40;;;0.20;;
66212;SDS011;53015;50.046;8.238;2022-09-17T13:55:29;3.07;;;0.40;;
66212;SDS011;53015;50.046;8.238;2022-09-17T13:57:58;2.15;;;0.40;;
66212;SDS011;53015;50.046;8.238;2022-09-17T14:06:42;0.88;;;0.40;;
66212;SDS011;53015;50.046;8.238;2022-09-17T14:13:46;1.35;;;0.40;;
66212;SDS011;53015;50.046;8.238;2022-09-17T14:21:40;1.98;;;0.47;;
66212;SDS011;53015;50.046;8.238;2022-09-17T14:24:21;2.17;;;0.60;;
66212;SDS011;53015;50.046;8.238;2022-09-17T14:27:05;4.15;;;0.70;;
66212;SDS011;53015;50.046;8.238;2022-09-17T14:30:12;1.25;;;0.30;;
66212;SDS011;53015;50.046;8.238;2022-09-17T14:35:38;2.38;;;0.50;;
66212;SDS011;53015;50.046;8.238;2022-09-17T14:38:26;3.28;;;0.88;;
66212;SDS011;53015;50.046;8.238;2022-09-17T14:40:59;5.05;;;0.60;;
66212;SDS011;53015;50.046;8.238;2022-09-17T14:46:03;0.65;;;0.30;;
66212;SDS011;53015;50.046;8.238;2022-09-17T14:48:34;1.17;;;0.30;;
66212;SDS011;53015;50.046;8.238;2022-09-17T14:51:12;4.78;;;0.60;;
66212;SDS011;53015;50.046;8.238;2022-09-17T14:53:42;3.22;;;0.60;;
66212;SDS011;53015;50.046;8.238;2022-09-17T14:56:12;3.70;;;0.43;;
66212;SDS011;53015;50.046;8.238;2022-09-17T14:58:40;1.15;;;0.20;;
66212;SDS011;53015;50.046;8.238;2022-09-17T15:01:29;2.15;;;0.40;;
66212;SDS011;53015;50.046;8.238;2022-09-17T15:07:17;1.65;;;0.40;;
66212;SDS011;53015;50.046;8.238;2022-09-17T15:09:45;1.92;;;0.50;;
66212;SDS011;53015;50.046;8.238;2022-09-17T15:12:11;1.38;;;0.43;;
66212;SDS011;53015;50.046;8.238;2022-09-17T15:14:42;1.45;;;0.65;;
66212;SDS011;53015;50.046;8.238;2022-09-17T15:17:12;1.92;;;0.60;;
66212;SDS011;53015;50.046;8.238;2022-09-17T15:19:44;1.95;;;0.40;;
66212;SDS011;53015;50.046;8.238;2022-09-17T15:22:16;1.92;;;0.47;;
66212;SDS011;53015;50.046;8.238;2022-09-17T15:24:50;0.70;;;0.40;;
66212;SDS011;53015;50.046;8.238;2022-09-17T15:27:25;5.45;;;0.50;;
66212;SDS011;53015;50.046;8.238;2022-09-17T15:30:05;2.47;;;0.40;;
66212;SDS011;53015;50.046;8.238;2022-09-17T15:32:37;1.50;;;0.50;;
66212;SDS011;53015;50.046;8.238;2022-09-17T15:37:43;6.18;;;0.80;;
66212;SDS011;53015;50.046;8.238;2022-09-17T15:40:26;3.00;;;0.80;;
66212;SDS011;53015;50.046;8.238;2022-09-17T15:45:41;0.90;;;0.40;;
66212;SDS011;53015;50.046;8.238;2022-09-17T15:51:04;1.83;;;0.30;;
66212;SDS011;53015;50.046;8.238;2022-09-17T15:53:39;1.65;;;0.43;;
66212;SDS011;53015;50.046;8.238;2022-09-17T15:56:16;4.32;;;0.60;;
66212;SDS011;53015;50.046;8.238;2022-09-17T16:08:52;0.90;;;0.20;;
66212;SDS011;53015;50.046;8.238;2022-09-17T16:11:19;0.20;;;0.10;;
66212;SDS011;53015;50.046;8.238;2022-09-17T16:13:46;0.98;;;0.22;;
66212;SDS011;53015;50.046;8.238;2022-09-17T16:16:13;0.40;;;0.20;;
66212;SDS011;53015;50.046;8.238;2022-09-17T16:18:41;0.75;;;0.20;;
66212;SDS011;53015;50.046;8.238;2022-09-17T16:21:09;0.82;;;0.40;;
66212;SDS011;53015;50.046;8.238;2022-09-17T16:23:35;2.25;;;0.40;;
66212;SDS011;53015;50.046;8.238;2022-09-17T16:26:01;0.90;;;0.30;;
66212;SDS011;53015;50.046;8.238;2022-09-17T16:28:28;1.23;;;0.50;;
66212;SDS011;53015;50.046;8.238;2022-09-17T16:30:54;0.50;;;0.22;;
66212;SDS011;53015;50.046;8.238;2022-09-17T16:33:20;0.73;;;0.47;;
66212;SDS011;53015;50.046;8.238;2022-09-17T16:35:45;1.38;;;0.22;;
66212;SDS011;53015;50.046;8.238;2022-09-17T16:38:11;1.27;;;0.40;;
66212;SDS011;53015;50.046;8.238;2022-09-17T16:40:43;0.95;;;0.30;;
66212;SDS011;53015;50.046;8.238;2022-09-17T16:43:11;0.50;;;0.20;;
66212;SDS011;53015;50.046;8.238;2022-09-17T16:45:36;2.30;;;0.30;;
66212;SDS011;53015;50.046;8.238;2022-09-17T16:48:02;0.73;;;0.40;;
66212;SDS011;53015;50.046;8.238;2022-09-17T16:50:29;1.08;;;0.57;;
66212;SDS011;53015;50.046;8.238;2022-09-17T16:52:54;1.77;;;0.70;;
66212;SDS011;53015;50.046;8.238;2022-09-17T16:55:20;0.82;;;0.60;;
66212;SDS011;53015;50.046;8.238;2022-09-17T16:57:46;1.50;;;0.80;;
66212;SDS011;53015;50.046;8.238;2022-09-17T17:00:13;1.73;;;0.93;;
66212;SDS011;53015;50.046;8.238;2022-09-17T17:02:43;1.17;;;0.82;;
66212;SDS011;53015;50.046;8.238;2022-09-17T17:05:15;2.30;;;0.52;;
66212;SDS011;53015;50.046;8.238;2022-09-17T17:07:40;1.00;;;0.60;;
66212;SDS011;53015;50.046;8.238;2022-09-17T17:10:06;3.50;;;0.60;;
66212;SDS011;53015;50.046;8.238;2022-09-17T17:12:33;2.47;;;0.77;;
66212;SDS011;53015;50.046;8.238;2022-09-17T17:14:59;3.03;;;0.52;;
66212;SDS011;53015;50.046;8.238;2022-09-17T17:17:25;1.17;;;0.43;;
66212;SDS011;53015;50.046;8.238;2022-09-17T17:19:50;0.65;;;0.30;;
66212;SDS011;53015;50.046;8.238;2022-09-17T17:22:16;1.02;;;0.40;;
66212;SDS011;53015;50.046;8.238;2022-09-17T17:24:42;1.35;;;0.50;;
66212;SDS011;53015;50.046;8.238;2022-09-17T17:27:08;0.63;;;0.20;;
66212;SDS011;53015;50.046;8.238;2022-09-17T17:29:34;0.30;;;0.20;;
66212;SDS011;53015;50.046;8.238;2022-09-17T17:32:03;1.23;;;0.50;;
66212;SDS011;53015;50.046;8.238;2022-09-17T17:34:29;0.43;;;0.20;;
66212;SDS011;53015;50.046;8.238;2022-09-17T17:36:55;0.73;;;0.30;;
66212;SDS011;53015;50.046;8.238;2022-09-17T17:39:21;3.22;;;0.52;;
66212;SDS011;53015;50.046;8.238;2022-09-17T17:41:46;2.08;;;0.50;;
66212;SDS011;53015;50.046;8.238;2022-09-17T17:44:12;0.93;;;0.68;;
66212;SDS011;53015;50.046;8.238;2022-09-17T17:46:38;1.73;;;0.70;;
66212;SDS011;53015;50.046;8.238;2022-09-17T17:49:04;1.08;;;0.40;;
66212;SDS011;53015;50.046;8.238;2022-09-17T17:51:33;2.05;;;0.52;;
66212;SDS011;53015;50.046;8.238;2022-09-17T17:53:59;1.55;;;0.88;;
66212;SDS011;53015;50.046;8.238;2022-09-17T17:56:26;4.90;;;0.90;;
66212;SDS011;53015;50.046;8.238;2022-09-17T17:58:55;1.23;;;0.50;;
66212;SDS011;53015;50.046;8.238;2022-09-17T18:01:26;2.72;;;0.50;;
66212;SDS011;53015;50.046;8.238;2022-09-17T18:03:56;3.58;;;0.52;;
66212;SDS011;53015;50.046;8.238;2022-09-17T18:06:23;1.38;;;0.52;;
66212;SDS011;53015;50.046;8.238;2022-09-17T18:08:51;3.05;;;0.40;;
66212;SDS011;53015;50.046;8.238;2022-09-17T18:11:16;2.03;;;0.50;;
66212;SDS011;53015;50.046;8.238;2022-09-17T18:13:42;1.83;;;0.50;;
66212;SDS011;53015;50.046;8.238;2022-09-17T18:16:09;2.95;;;0.50;;
66212;SDS011;53015;50.046;8.238;2022-09-17T18:18:38;1.63;;;0.63;;
66212;SDS011;53015;50.046;8.238;2022-09-17T18:21:06;2.65;;;0.85;;
66212;SDS011;53015;50.046;8.238;2022-09-17T18:23:34;2.20;;;0.60;;
66212;SDS011;53015;50.046;8.238;2022-09-17T18:26:01;2.95;;;0.50;;
66212;SDS011;53015;50.046;8.238;2022-09-17T18:28:28;1.85;;;0.30;;
66212;SDS011;53015;50.046;8.238;2022-09-17T18:30:54;2.65;;;0.50;;
66212;SDS011;53015;50.046;8.238;2022-09-17T18:33:21;1.33;;;0.50;;